Time;durP1;ratioP1;P1;durP2;ratioP2;P2;SDS_P1;SDS_P2;PMS_P1;PMS_P2;Temp;Humidity;BMP_temperature;BMP_pressure;BME280_temperature;BME280_humidity;BME280_pressure;Samples;Min_cycle;Max_cycle;Signal;HPM_P1;HPM_P2
2021/08/05 00:01:36;;;;;;;0.90;0.90;;;27.90;57.70;;;;;;5075529;28;20024;-81
2021/08/05 00:04:02;;;;;;;2.53;1.77;;;28.00;58.10;;;;;;5074911;28;20528;-80
2021/08/05 00:06:28;;;;;;;1.30;1.23;;;28.10;58.50;;;;;;5074839;28;20033;-83
2021/08/05 00:08:54;;;;;;;10.35;1.95;;;28.10;58.40;;;;;;5075049;28;20056;-81
2021/08/05 00:11:20;;;;;;;5.30;2.78;;;28.10;58.20;;;;;;5074804;28;20100;-81
2021/08/05 00:13:45;;;;;;;3.15;2.75;;;28.00;57.90;;;;;;5074631;28;20024;-81
2021/08/05 00:16:11;;;;;;;2.25;2.05;;;27.80;58.10;;;;;;5056697;28;20032;-80
2021/08/05 00:18:37;;;;;;;1.13;1.02;;;27.90;58.20;;;;;;5074647;28;20129;-81
2021/08/05 00:21:03;;;;;;;1.83;1.67;;;27.90;58.10;;;;;;5074568;28;20379;-82
2021/08/05 00:23:28;;;;;;;1.63;1.52;;;28.00;58.10;;;;;;5074281;28;20074;-79
2021/08/05 00:25:54;;;;;;;0.60;0.60;;;27.70;58.80;;;;;;5074128;28;20417;-81
2021/08/05 00:28:20;;;;;;;10.85;1.63;;;27.70;59.10;;;;;;5074256;28;20468;-81
2021/08/05 00:30:46;;;;;;;0.70;0.70;;;27.70;59.20;;;;;;5074519;28;20464;-81
2021/08/05 00:33:11;;;;;;;1.55;1.45;;;27.70;59.50;;;;;;5074111;28;20565;-79
2021/08/05 00:35:37;;;;;;;0.68;0.68;;;27.70;59.40;;;;;;5074397;28;20491;-81
2021/08/05 00:38:03;;;;;;;0.70;0.70;;;27.50;60.60;;;;;;5074176;28;20491;-80
2021/08/05 00:40:29;;;;;;;2.55;2.35;;;27.40;60.10;;;;;;5074113;28;20024;-82
2021/08/05 00:42:54;;;;;;;1.23;1.15;;;27.20;60.60;;;;;;5074221;28;20029;-81
2021/08/05 00:45:20;;;;;;;1.60;1.50;;;27.20;60.80;;;;;;5073872;28;20366;-82
2021/08/05 00:47:46;;;;;;;1.83;1.67;;;27.10;61.30;;;;;;5073941;28;20064;-80
2021/08/05 00:50:12;;;;;;;1.73;1.63;;;27.30;60.50;;;;;;5073973;28;20070;-81
2021/08/05 00:52:38;;;;;;;1.38;1.27;;;27.40;60.80;;;;;;5073949;28;20032;-79
2021/08/05 00:55:05;;;;;;;3.20;1.60;;;27.40;60.70;;;;;;5055785;28;20036;-81
2021/08/05 00:57:31;;;;;;;0.63;0.63;;;27.40;60.10;;;;;;5056191;28;20121;-80
2021/08/05 00:59:58;;;;;;;0.90;0.90;;;27.40;59.50;;;;;;5073940;28;20086;-81
2021/08/05 01:02:30;;;;;;;0.95;0.93;;;27.50;60.10;;;;;;5055968;28;20013;-83
2021/08/05 01:04:58;;;;;;;3.03;1.13;;;27.40;59.50;;;;;;5074030;28;20029;-79
2021/08/05 01:07:53;;;;;;;5.78;1.95;;;27.40;59.60;;;;;;5072984;28;20070;-82
2021/08/05 01:10:24;;;;;;;1.67;1.58;;;27.50;59.30;;;;;;5064594;28;20131;-81
2021/08/05 01:13:06;;;;;;;0.93;0.93;;;27.20;58.70;;;;;;5073688;28;20043;-79
2021/08/05 01:15:33;;;;;;;5.32;1.90;;;27.20;58.60;;;;;;5073839;28;20045;-81
2021/08/05 01:18:12;;;;;;;4.28;2.35;;;27.10;58.40;;;;;;5073997;28;20028;-80
2021/08/05 01:20:44;;;;;;;2.25;2.05;;;27.10;58.10;;;;;;5073510;28;20025;-80
2021/08/05 01:23:22;;;;;;;4.93;1.60;;;27.20;58.20;;;;;;5073366;28;20056;-79
2021/08/05 01:25:54;;;;;;;0.77;0.77;;;27.30;57.80;;;;;;5073384;28;20033;-80
2021/08/05 01:28:20;;;;;;;1.33;1.23;;;27.30;58.90;;;;;;5073657;28;20372;-79
2021/08/05 01:30:48;;;;;;;1.45;1.35;;;27.20;58.40;;;;;;5055280;28;20334;-81
2021/08/05 01:33:18;;;;;;;3.55;2.65;;;26.90;59.80;;;;;;5073583;28;20392;-80
2021/08/05 01:35:45;;;;;;;2.83;2.05;;;27.10;58.20;;;;;;5055429;28;20029;-82
2021/08/05 01:38:14;;;;;;;0.55;0.55;;;27.20;58.70;;;;;;5073263;28;20025;-81
2021/08/05 01:40:41;;;;;;;0.70;0.70;;;27.00;59.90;;;;;;5073054;28;20467;-81
2021/08/05 01:43:07;;;;;;;1.65;1.30;;;26.90;59.80;;;;;;5073233;28;20032;-79
2021/08/05 01:45:33;;;;;;;0.50;0.50;;;27.00;59.50;;;;;;5073097;28;20085;-80
2021/08/05 01:48:01;;;;;;;1.33;1.23;;;27.00;59.70;;;;;;5072991;28;20037;-80
2021/08/05 01:50:27;;;;;;;0.60;0.60;;;27.00;58.90;;;;;;5072818;28;20033;-81
2021/08/05 01:52:54;;;;;;;2.60;2.28;;;26.80;59.10;;;;;;5073085;28;20040;-79
2021/08/05 01:55:20;;;;;;;1.30;1.23;;;26.70;59.40;;;;;;5072884;28;20100;-82
2021/08/05 01:57:45;;;;;;;1.45;1.35;;;26.80;59.60;;;;;;5055412;28;20107;-80
2021/08/05 02:00:12;;;;;;;1.15;1.05;;;27.00;59.20;;;;;;5072512;28;20032;-82
2021/08/05 02:02:38;;;;;;;0.98;0.95;;;26.90;59.20;;;;;;5073085;28;20056;-82
2021/08/05 02:05:15;;;;;;;1.52;1.15;;;26.90;59.50;;;;;;5072726;28;20116;-82
2021/08/05 02:08:02;;;;;;;1.08;0.98;;;26.90;59.80;;;;;;5072805;28;20020;-81
2021/08/05 02:10:33;;;;;;;0.70;0.70;;;26.60;60.60;;;;;;5072432;28;20028;-81
2021/08/05 02:13:22;;;;;;;1.40;1.30;;;26.70;60.00;;;;;;5054855;28;20048;-80
2021/08/05 02:15:52;;;;;;;1.58;1.00;;;26.80;60.10;;;;;;5072776;28;20028;-81
2021/08/05 02:18:19;;;;;;;0.57;0.57;;;26.60;59.90;;;;;;5072173;28;20031;-80
2021/08/05 02:20:45;;;;;;;0.70;0.70;;;26.60;60.00;;;;;;5072355;28;20044;-81
2021/08/05 02:23:14;;;;;;;1.98;1.85;;;26.70;60.20;;;;;;5072721;28;20402;-81
2021/08/05 02:25:41;;;;;;;0.95;0.90;;;26.30;60.20;;;;;;5072571;28;20440;-82
2021/08/05 02:28:08;;;;;;;0.70;0.70;;;26.50;60.00;;;;;;5072728;28;20038;-81
2021/08/05 02:30:36;;;;;;;0.60;0.60;;;26.60;60.40;;;;;;5072116;28;20399;-81
2021/08/05 02:33:02;;;;;;;1.13;1.05;;;26.60;60.80;;;;;;5072164;28;20109;-80
2021/08/05 02:35:28;;;;;;;0.60;0.60;;;26.40;60.80;;;;;;5071912;28;20029;-82
2021/08/05 02:37:54;;;;;;;1.45;1.35;;;26.40;61.80;;;;;;5071921;28;20029;-79
2021/08/05 02:40:20;;;;;;;2.05;1.55;;;26.30;61.60;;;;;;5071750;28;20380;-81
2021/08/05 02:42:47;;;;;;;2.47;1.98;;;26.40;62.20;;;;;;5071842;28;20025;-82
2021/08/05 02:45:13;;;;;;;1.25;1.17;;;26.40;62.20;;;;;;5071817;28;20025;-80
2021/08/05 02:47:40;;;;;;;1.80;1.67;;;26.10;61.10;;;;;;5071382;28;20103;-81
2021/08/05 02:50:06;;;;;;;1.10;1.05;;;26.20;61.40;;;;;;5071526;28;20029;-81
2021/08/05 02:52:34;;;;;;;1.50;1.40;;;26.30;61.80;;;;;;5072288;28;20060;-81
2021/08/05 02:55:04;;;;;;;0.80;0.80;;;26.30;62.30;;;;;;5071742;28;20100;-83
2021/08/05 02:57:30;;;;;;;;;;;26.40;62.60;;;;;;5072058;28;20028;-81
2021/08/05 02:59:57;;;;;;;0.98;0.98;;;26.40;63.00;;;;;;5071522;28;19911;-82
2021/08/05 03:02:22;;;;;;;0.95;0.95;;;26.40;63.00;;;;;;5053932;28;20017;-79
2021/08/05 03:04:49;;;;;;;1.08;1.02;;;26.20;63.10;;;;;;5071294;28;20039;-81
2021/08/05 03:07:15;;;;;;;1.25;1.13;;;26.10;63.20;;;;;;5071523;28;20036;-81
2021/08/05 03:09:41;;;;;;;1.67;1.58;;;26.20;63.60;;;;;;5071675;28;20036;-81
2021/08/05 03:12:07;;;;;;;0.55;0.55;;;26.20;63.50;;;;;;5053414;28;20051;-81
2021/08/05 03:14:32;;;;;;;1.17;1.13;;;26.20;63.20;;;;;;5071395;28;20017;-81
2021/08/05 03:17:00;;;;;;;0.50;0.50;;;26.20;63.20;;;;;;5071622;28;20428;-82
2021/08/05 03:19:26;;;;;;;1.05;1.02;;;26.20;63.50;;;;;;5071756;28;20048;-82
2021/08/05 03:21:52;;;;;;;1.38;1.25;;;26.00;63.60;;;;;;5071658;28;20434;-78
2021/08/05 03:24:18;;;;;;;0.60;0.60;;;25.90;63.90;;;;;;5071485;28;20056;-79
2021/08/05 03:26:44;;;;;;;1.27;1.10;;;25.90;64.30;;;;;;5071392;28;20488;-81
2021/08/05 03:29:09;;;;;;;1.02;0.98;;;25.80;64.70;;;;;;5071522;28;20043;-81
2021/08/05 03:31:35;;;;;;;0.85;0.85;;;25.80;64.70;;;;;;5074159;28;20071;-81
2021/08/05 03:34:01;;;;;;;1.25;1.08;;;25.80;64.40;;;;;;5057605;28;20041;-80
2021/08/05 03:36:27;;;;;;;2.05;1.95;;;25.60;64.40;;;;;;5075555;28;20033;-81
2021/08/05 03:38:53;;;;;;;0.88;0.88;;;25.80;64.60;;;;;;5075534;28;20033;-81
2021/08/05 03:41:19;;;;;;;0.85;0.85;;;25.70;64.40;;;;;;5075613;28;20055;-82
2021/08/05 03:43:45;;;;;;;0.95;0.95;;;25.80;64.30;;;;;;5075326;28;20317;-82
2021/08/05 03:46:10;;;;;;;0.70;0.70;;;25.80;64.40;;;;;;5075682;28;20353;-80
2021/08/05 03:48:36;;;;;;;1.55;1.40;;;25.80;64.50;;;;;;5075270;28;20518;-82
2021/08/05 03:51:03;;;;;;;0.75;0.75;;;25.80;64.40;;;;;;5075154;28;20086;-82
2021/08/05 03:53:29;;;;;;;1.35;1.25;;;25.80;64.40;;;;;;5075311;28;20032;-80
2021/08/05 03:55:55;;;;;;;2.15;1.25;;;25.70;64.60;;;;;;5075007;28;20082;-81
2021/08/05 03:58:21;;;;;;;1.75;1.65;;;25.70;64.30;;;;;;5075142;28;20033;-82
2021/08/05 04:00:46;;;;;;;1.50;1.40;;;25.50;64.50;;;;;;5057274;28;20021;-81
2021/08/05 04:03:12;;;;;;;0.80;0.80;;;25.50;65.30;;;;;;5074906;28;20032;-82
2021/08/05 04:05:38;;;;;;;0.77;0.77;;;25.60;64.70;;;;;;5075164;28;20029;-81
2021/08/05 04:08:04;;;;;;;0.80;0.80;;;25.60;63.90;;;;;;5075328;28;20028;-81
2021/08/05 04:10:29;;;;;;;1.38;1.23;;;25.50;65.20;;;;;;5074853;28;20175;-81
2021/08/05 04:12:55;;;;;;;3.30;3.00;;;25.50;65.00;;;;;;5074773;28;20032;-80
2021/08/05 04:15:21;;;;;;;2.15;1.15;;;25.60;65.30;;;;;;5074534;28;20031;-83
2021/08/05 04:17:47;;;;;;;2.95;1.50;;;25.60;65.00;;;;;;5074785;28;20104;-82
2021/08/05 04:20:13;;;;;;;0.80;0.80;;;25.60;64.70;;;;;;5074730;28;20025;-82
2021/08/05 04:22:39;;;;;;;2.53;2.33;;;25.60;65.20;;;;;;5074321;28;20099;-82
2021/08/05 04:25:06;;;;;;;2.22;1.27;;;25.60;65.80;;;;;;5056511;28;20037;-82
2021/08/05 04:27:32;;;;;;;0.80;0.80;;;25.60;66.50;;;;;;5074735;28;20020;-82
2021/08/05 04:29:58;;;;;;;1.77;1.35;;;25.70;66.80;;;;;;5074540;28;20032;-83
2021/08/05 04:32:24;;;;;;;1.30;1.20;;;25.60;66.60;;;;;;5074106;28;20135;-81
2021/08/05 04:34:50;;;;;;;1.45;1.35;;;25.70;67.00;;;;;;5074454;28;20029;-83
2021/08/05 04:37:17;;;;;;;4.50;4.10;;;25.70;65.60;;;;;;5074321;28;20059;-80
2021/08/05 04:39:43;;;;;;;5.78;1.65;;;25.90;65.40;;;;;;5073987;28;20020;-83
2021/08/05 04:42:09;;;;;;;0.80;0.80;;;25.90;64.90;;;;;;5074312;28;20027;-81
2021/08/05 04:44:35;;;;;;;3.25;1.92;;;25.80;64.30;;;;;;5074355;28;20046;-82
2021/08/05 04:47:01;;;;;;;1.88;1.45;;;25.80;64.70;;;;;;5074257;28;20037;-81
2021/08/05 04:49:27;;;;;;;1.33;1.23;;;25.80;65.50;;;;;;5073944;28;20050;-80
2021/08/05 04:51:53;;;;;;;0.85;0.85;;;25.70;65.30;;;;;;5073764;28;20060;-79
2021/08/05 04:54:22;;;;;;;2.40;2.20;;;25.80;65.10;;;;;;5073820;28;20029;-83
2021/08/05 04:56:49;;;;;;;1.45;1.35;;;25.90;65.10;;;;;;5074159;28;20032;-82
2021/08/05 04:59:14;;;;;;;4.90;4.40;;;26.00;65.30;;;;;;5055941;28;20535;-81
2021/08/05 05:01:40;;;;;;;1.67;1.58;;;26.10;65.40;;;;;;5073630;28;20028;-82
2021/08/05 05:04:06;;;;;;;6.38;2.45;;;26.10;66.20;;;;;;5073864;28;20052;-82
2021/08/05 05:06:32;;;;;;;1.35;1.25;;;25.90;66.40;;;;;;5073796;28;20032;-81
2021/08/05 05:08:57;;;;;;;8.80;6.95;;;26.00;66.30;;;;;;5073348;28;20031;-82
2021/08/05 05:11:23;;;;;;;10.23;4.15;;;26.00;65.90;;;;;;5073613;28;20392;-81
2021/08/05 05:13:49;;;;;;;2.85;2.65;;;26.10;65.50;;;;;;5073712;28;20028;-82
2021/08/05 05:16:15;;;;;;;4.20;2.83;;;26.00;65.70;;;;;;5073626;28;20024;-83
2021/08/05 05:18:41;;;;;;;1.35;1.25;;;25.90;65.50;;;;;;5073841;28;20032;-81
2021/08/05 05:21:06;;;;;;;11.45;1.80;;;26.00;65.10;;;;;;5073528;28;20565;-82
2021/08/05 05:23:33;;;;;;;1.52;1.30;;;26.10;64.80;;;;;;5055387;28;20028;-81
2021/08/05 05:25:59;;;;;;;1.15;1.13;;;26.10;64.80;;;;;;5073232;28;20107;-82
2021/08/05 05:28:26;;;;;;;1.02;0.90;;;26.30;65.20;;;;;;5073788;28;20025;-81
2021/08/05 05:30:53;;;;;;;0.75;0.75;;;26.40;64.90;;;;;;5073033;28;20052;-81
2021/08/05 05:33:19;;;;;;;1.15;1.10;;;26.30;64.80;;;;;;5073459;28;20113;-83
2021/08/05 05:35:45;;;;;;;1.02;0.95;;;26.20;65.50;;;;;;5055204;28;20480;-83
2021/08/05 05:38:11;;;;;;;1.90;1.77;;;26.30;65.20;;;;;;5073778;28;20034;-82
2021/08/05 05:40:38;;;;;;;0.88;0.88;;;26.40;65.20;;;;;;5054895;28;20023;-82
2021/08/05 05:43:05;;;;;;;1.15;1.05;;;26.50;64.60;;;;;;5073021;28;20020;-83
2021/08/05 05:45:31;;;;;;;3.10;2.83;;;26.60;65.00;;;;;;5073204;28;20029;-82
2021/08/05 05:47:57;;;;;;;2.55;1.67;;;26.70;64.80;;;;;;5054889;28;20060;-82
2021/08/05 05:50:23;;;;;;;1.73;1.60;;;26.70;64.40;;;;;;5072705;28;20029;-82
2021/08/05 05:52:49;;;;;;;3.55;1.80;;;26.80;64.50;;;;;;5072526;28;20044;-84
2021/08/05 05:55:16;;;;;;;1.42;1.20;;;26.90;63.90;;;;;;5072340;28;20423;-81
2021/08/05 05:57:41;;;;;;;3.17;2.88;;;26.90;62.80;;;;;;5071786;28;20032;-81
2021/08/05 06:00:08;;;;;;;2.35;2.15;;;26.90;63.20;;;;;;5072568;28;20027;-83
2021/08/05 06:02:33;;;;;;;2.42;1.85;;;26.90;62.30;;;;;;5072558;28;20029;-82
2021/08/05 06:05:00;;;;;;;2.40;1.90;;;26.90;62.60;;;;;;5072604;28;20082;-83
2021/08/05 06:07:25;;;;;;;3.30;3.00;;;27.00;63.00;;;;;;5072598;28;20026;-81
2021/08/05 06:09:51;;;;;;;1.50;1.40;;;27.10;62.70;;;;;;5072372;28;20051;-83
2021/08/05 06:12:17;;;;;;;2.95;2.13;;;27.00;63.10;;;;;;5072493;28;20111;-82
2021/08/05 06:14:44;;;;;;;0.77;0.77;;;27.10;62.80;;;;;;5072368;28;20039;-81
2021/08/05 06:17:09;;;;;;;1.27;1.17;;;27.10;62.40;;;;;;5072262;28;20055;-81
2021/08/05 06:19:35;;;;;;;0.60;0.60;;;27.00;62.00;;;;;;5072199;28;20411;-81
2021/08/05 06:22:02;;;;;;;2.08;1.95;;;27.00;61.90;;;;;;5072033;28;20080;-83
2021/08/05 06:24:27;;;;;;;0.70;0.70;;;27.20;61.70;;;;;;5072154;28;20069;-80
2021/08/05 06:26:53;;;;;;;0.65;0.65;;;27.30;61.60;;;;;;5072191;28;20029;-81
2021/08/05 06:29:19;;;;;;;0.50;0.50;;;27.50;61.60;;;;;;5072030;28;20044;-81
2021/08/05 06:31:45;;;;;;;2.83;1.80;;;27.30;61.80;;;;;;5053965;28;20109;-81
2021/08/05 06:34:11;;;;;;;10.02;2.53;;;27.60;62.20;;;;;;5072314;28;20097;-81
2021/08/05 06:36:37;;;;;;;0.60;0.60;;;27.70;62.20;;;;;;5072493;28;20037;-82
2021/08/05 06:39:04;;;;;;;0.90;0.90;;;27.90;60.90;;;;;;5053868;28;20493;-81
2021/08/05 06:41:31;;;;;;;2.10;1.95;;;27.90;61.20;;;;;;5053651;28;20021;-80
2021/08/05 06:43:57;;;;;;;1.08;0.98;;;28.00;61.20;;;;;;5072098;28;20025;-83
2021/08/05 06:46:25;;;;;;;1.40;0.93;;;28.00;61.10;;;;;;5054104;28;20074;-79
2021/08/05 06:48:51;;;;;;;0.65;0.65;;;28.10;61.30;;;;;;5071545;28;20119;-80
2021/08/05 06:51:16;;;;;;;2.38;2.17;;;28.20;60.10;;;;;;5071658;28;20177;-81
2021/08/05 06:53:42;;;;;;;5.38;2.08;;;28.40;59.70;;;;;;5071666;28;20040;-81
2021/08/05 06:56:09;;;;;;;0.50;0.50;;;28.50;59.50;;;;;;5071917;28;20020;-79
2021/08/05 06:58:35;;;;;;;0.43;0.43;;;28.60;59.30;;;;;;5071654;28;20025;-79
2021/08/05 07:01:00;;;;;;;1.98;1.83;;;28.70;58.90;;;;;;5053787;28;20040;-79
2021/08/05 07:03:27;;;;;;;17.38;1.88;;;28.80;58.90;;;;;;5071682;28;20028;-79
2021/08/05 07:05:53;;;;;;;0.50;0.50;;;28.80;58.40;;;;;;5052904;28;20039;-82
2021/08/05 07:08:18;;;;;;;1.17;1.08;;;28.90;58.20;;;;;;5071682;28;20400;-81
2021/08/05 07:10:44;;;;;;;3.85;1.50;;;29.00;57.90;;;;;;5071554;28;20032;-82
2021/08/05 07:13:10;;;;;;;0.57;0.45;;;29.10;58.20;;;;;;5071718;28;20498;-79
2021/08/05 07:15:36;;;;;;;2.22;2.03;;;28.60;58.20;;;;;;5071527;28;20047;-79
2021/08/05 07:18:02;;;;;;;22.63;1.88;;;28.60;58.40;;;;;;5053767;28;20037;-83
2021/08/05 07:20:27;;;;;;;2.05;1.05;;;28.80;57.70;;;;;;5053445;28;20025;-81
2021/08/05 07:22:53;;;;;;;1.48;1.38;;;29.10;57.70;;;;;;5071400;28;20028;-81
2021/08/05 07:25:19;;;;;;;0.90;0.63;;;29.20;57.10;;;;;;5071349;28;20020;-79
2021/08/05 07:27:47;;;;;;;0.75;0.70;;;29.30;57.10;;;;;;5071323;28;20020;-81
2021/08/05 07:30:15;;;;;;;0.75;0.75;;;29.40;56.90;;;;;;5071447;28;20020;-81
2021/08/05 07:32:41;;;;;;;1.65;1.55;;;29.60;56.80;;;;;;5071062;28;20131;-82
2021/08/05 07:35:07;;;;;;;0.82;0.82;;;29.70;57.00;;;;;;5071214;28;20024;-82
2021/08/05 07:37:33;;;;;;;2.38;1.20;;;29.60;57.30;;;;;;5071685;28;20373;-80
2021/08/05 07:39:59;;;;;;;0.40;0.40;;;29.80;56.50;;;;;;5071435;28;20492;-81
2021/08/05 07:42:25;;;;;;;1.05;1.02;;;29.70;55.60;;;;;;5070962;28;20074;-83
2021/08/05 07:44:52;;;;;;;0.95;0.80;;;29.90;55.90;;;;;;5071086;28;20024;-81
2021/08/05 07:47:18;;;;;;;1.58;1.48;;;29.80;55.70;;;;;;5071223;28;20025;-83
2021/08/05 07:49:44;;;;;;;1.85;1.58;;;29.90;56.30;;;;;;5070746;28;20131;-82
2021/08/05 07:52:10;;;;;;;0.40;0.40;;;30.10;56.50;;;;;;5070835;28;20116;-80
2021/08/05 07:54:36;;;;;;;0.40;0.40;;;30.20;56.40;;;;;;5071091;28;20028;-82
2021/08/05 07:57:03;;;;;;;0.95;0.90;;;30.30;56.10;;;;;;5071235;28;20029;-82
2021/08/05 07:59:29;;;;;;;0.47;0.47;;;30.30;55.70;;;;;;5070829;28;20025;-83
2021/08/05 08:01:55;;;;;;;0.75;0.68;;;30.30;55.60;;;;;;5071029;28;20028;-81
2021/08/05 08:04:21;;;;;;;1.23;1.13;;;30.30;55.50;;;;;;5070959;28;20028;-82
2021/08/05 08:06:46;;;;;;;3.08;2.88;;;30.30;55.60;;;;;;5071039;28;20100;-80
2021/08/05 08:09:12;;;;;;;3.78;2.20;;;30.50;55.20;;;;;;5052853;28;20223;-81
2021/08/05 08:11:38;;;;;;;0.75;0.75;;;30.60;55.50;;;;;;5053118;28;20110;-82
2021/08/05 08:14:04;;;;;;;1.08;0.95;;;30.60;56.00;;;;;;5070847;28;20362;-80
2021/08/05 08:16:29;;;;;;;1.73;1.50;;;30.80;55.20;;;;;;5071515;28;20028;-80
2021/08/05 08:18:55;;;;;;;3.50;2.55;;;30.80;54.90;;;;;;5056647;28;20020;-82
2021/08/05 08:21:21;;;;;;;0.30;0.30;;;30.90;55.00;;;;;;5056944;28;20039;-83
2021/08/05 08:23:47;;;;;;;1.90;1.50;;;30.90;55.70;;;;;;5074492;28;20029;-78
2021/08/05 08:26:14;;;;;;;2.45;1.30;;;31.10;55.40;;;;;;5074542;28;20020;-82
2021/08/05 08:28:40;;;;;;;1.00;0.85;;;31.10;55.00;;;;;;5056461;28;20120;-80
2021/08/05 08:31:05;;;;;;;0.30;0.30;;;31.20;54.70;;;;;;5074191;28;20181;-81
2021/08/05 08:33:32;;;;;;;3.65;1.85;;;31.40;54.70;;;;;;5056352;28;20449;-79
2021/08/05 08:35:58;;;;;;;5.43;1.75;;;31.50;54.30;;;;;;5074365;28;20032;-82
2021/08/05 08:38:24;;;;;;;6.93;1.60;;;31.70;53.90;;;;;;5074208;28;20411;-82
2021/08/05 08:40:57;;;;;;;0.52;0.52;;;31.60;53.70;;;;;;5074210;28;20055;-80
2021/08/05 08:43:23;;;;;;;2.47;1.38;;;31.50;53.30;;;;;;5074231;28;20029;-82
2021/08/05 08:45:52;;;;;;;1.38;0.70;;;31.60;53.90;;;;;;5074107;28;20465;-83
2021/08/05 08:48:18;;;;;;;2.72;1.70;;;31.70;53.80;;;;;;5074243;28;20055;-83
2021/08/05 08:50:45;;;;;;;0.60;0.60;;;31.70;52.80;;;;;;5074120;28;20111;-81
2021/08/05 08:53:15;;;;;;;0.60;0.50;;;31.90;53.00;;;;;;5073985;28;20392;-80
2021/08/05 08:55:41;;;;;;;;;;;32.00;52.90;;;;;;5073538;28;20028;-81
2021/08/05 08:58:07;;;;;;;0.35;0.35;;;32.00;52.60;;;;;;5074001;28;19908;-80
2021/08/05 09:00:36;;;;;;;1.10;0.85;;;32.20;52.60;;;;;;5073503;28;20032;-82
2021/08/05 09:03:03;;;;;;;0.65;0.60;;;32.50;52.60;;;;;;5074167;28;20035;-82
2021/08/05 09:05:29;;;;;;;2.75;0.93;;;32.70;52.50;;;;;;5073467;28;20032;-83
2021/08/05 09:07:58;;;;;;;3.45;1.67;;;32.70;52.50;;;;;;5073966;28;20025;-82
2021/08/05 09:10:24;;;;;;;0.40;0.40;;;33.10;52.40;;;;;;5055661;28;20025;-82
2021/08/05 09:12:57;;;;;;;8.35;1.85;;;33.50;52.80;;;;;;5073671;28;20040;-82
2021/08/05 09:15:45;;;;;;;0.75;0.55;;;33.70;52.30;;;;;;5073146;28;20027;-79
2021/08/05 09:18:34;;;;;;;2.55;2.00;;;33.70;51.00;;;;;;5073723;28;20020;-79
2021/08/05 09:21:16;;;;;;;0.63;0.63;;;33.60;51.10;;;;;;5073170;28;20016;-81
2021/08/05 09:23:51;;;;;;;1.75;1.15;;;33.40;50.70;;;;;;5073142;28;20032;-81
2021/08/05 09:26:29;;;;;;;0.88;0.85;;;33.50;50.80;;;;;;5073650;28;20031;-80
2021/08/05 09:29:03;;;;;;;1.23;1.13;;;33.60;51.50;;;;;;5054203;28;20489;-79
2021/08/05 09:31:30;;;;;;;0.82;0.80;;;33.70;52.60;;;;;;5072968;28;20040;-83
2021/08/05 09:34:11;;;;;;;0.60;0.60;;;33.80;51.40;;;;;;5055425;28;20028;-79
2021/08/05 09:36:37;;;;;;;6.13;1.05;;;33.70;50.90;;;;;;5073223;28;20047;-81
2021/08/05 09:39:26;;;;;;;0.63;0.52;;;34.00;51.00;;;;;;5072870;28;20020;-82
2021/08/05 09:42:03;;;;;;;0.63;0.52;;;34.10;51.30;;;;;;5073151;28;20024;-81
2021/08/05 09:44:38;;;;;;;10.38;1.30;;;34.20;51.00;;;;;;5072675;28;20032;-83
2021/08/05 09:47:05;;;;;;;1.48;1.05;;;34.20;51.00;;;;;;5055165;28;20133;-81
2021/08/05 09:49:31;;;;;;;3.50;1.20;;;34.30;51.00;;;;;;5054647;28;20105;-80
2021/08/05 09:51:58;;;;;;;0.50;0.50;;;34.20;51.00;;;;;;5072481;28;20043;-83
2021/08/05 09:54:37;;;;;;;2.30;1.38;;;34.30;50.30;;;;;;5072784;28;20058;-80
2021/08/05 09:57:06;;;;;;;5.53;1.10;;;34.60;50.40;;;;;;5073019;28;20048;-81
2021/08/05 09:59:31;;;;;;;0.38;0.35;;;34.70;51.20;;;;;;5054371;28;20269;-78
2021/08/05 10:02:05;;;;;;;1.85;0.90;;;34.80;50.00;;;;;;5072650;28;20032;-81
2021/08/05 10:04:35;;;;;;;3.35;1.73;;;34.50;50.10;;;;;;5054711;28;20078;-81
2021/08/05 10:07:03;;;;;;;2.83;1.85;;;34.50;50.30;;;;;;5072739;28;20020;-81
2021/08/05 10:09:30;;;;;;;1.55;1.10;;;34.50;51.10;;;;;;5072557;28;20032;-82
2021/08/05 10:12:20;;;;;;;4.55;2.92;;;34.20;50.60;;;;;;5073093;28;20028;-81
2021/08/05 10:14:50;;;;;;;1.25;1.15;;;33.80;50.70;;;;;;5072162;28;20040;-81
2021/08/05 10:17:17;;;;;;;;;;;33.70;50.70;;;;;;5072839;28;20021;-81
2021/08/05 10:19:45;;;;;;;0.40;0.40;;;33.80;51.00;;;;;;5072321;28;19909;-79
2021/08/05 10:22:14;;;;;;;8.23;1.73;;;34.10;50.40;;;;;;5054411;28;20028;-81
2021/08/05 10:24:47;;;;;;;0.38;0.38;;;34.30;50.10;;;;;;5072157;28;20103;-82
2021/08/05 10:27:15;;;;;;;1.05;0.93;;;34.50;50.70;;;;;;5072328;28;20025;-79
2021/08/05 10:29:42;;;;;;;18.73;2.55;;;34.40;50.20;;;;;;5071814;28;20021;-82
2021/08/05 10:32:10;;;;;;;0.70;0.70;;;34.40;50.20;;;;;;5072014;28;20037;-81
2021/08/05 10:34:37;;;;;;;5.47;1.98;;;34.50;50.20;;;;;;5072161;28;20047;-81
2021/08/05 10:37:05;;;;;;;2.13;0.85;;;34.70;50.30;;;;;;5054277;28;20116;-80
2021/08/05 10:39:34;;;;;;;1.20;0.73;;;34.80;51.40;;;;;;5071532;28;20426;-82
2021/08/05 10:42:04;;;;;;;1.13;1.02;;;34.90;50.50;;;;;;5072017;28;20472;-82
2021/08/05 10:44:30;;;;;;;2.03;1.75;;;35.00;47.40;;;;;;5071733;28;20074;-82
2021/08/05 10:46:58;;;;;;;0.82;0.82;;;35.40;43.40;;;;;;5071926;28;20392;-82
2021/08/05 10:49:25;;;;;;;10.90;1.42;;;35.80;44.20;;;;;;5053497;28;20062;-82
2021/08/05 10:51:51;;;;;;;0.98;0.85;;;36.30;41.50;;;;;;5071796;28;20434;-83
2021/08/05 10:54:52;;;;;;;2.88;2.60;;;36.70;42.50;;;;;;5071884;28;20413;-82
2021/08/05 10:57:22;;;;;;;0.63;0.63;;;36.80;42.20;;;;;;5071857;28;20028;-83
2021/08/05 11:00:14;;;;;;;3.22;2.28;;;36.80;40.40;;;;;;5053547;28;20074;-82
2021/08/05 11:02:43;;;;;;;0.55;0.55;;;36.80;38.30;;;;;;5072010;28;20427;-82
2021/08/05 11:05:09;;;;;;;0.70;0.57;;;37.00;38.00;;;;;;5071979;28;20396;-83
2021/08/05 11:07:35;;;;;;;2.20;1.33;;;37.10;37.70;;;;;;5071439;28;20036;-81
2021/08/05 11:10:27;;;;;;;0.73;0.73;;;37.30;38.20;;;;;;5071512;28;20024;-82
2021/08/05 11:12:56;;;;;;;2.30;2.08;;;37.20;37.00;;;;;;5069547;28;20067;-81
2021/08/05 11:15:33;;;;;;;1.52;1.02;;;37.10;37.20;;;;;;5071561;28;20028;-81
2021/08/05 11:18:10;;;;;;;3.25;0.82;;;37.30;37.20;;;;;;5071564;28;20028;-84
2021/08/05 11:20:46;;;;;;;2.15;1.55;;;37.40;36.40;;;;;;5071781;28;20078;-81
2021/08/05 11:23:37;;;;;;;1.90;1.02;;;37.40;36.50;;;;;;5071505;28;20029;-82
2021/08/05 11:26:05;;;;;;;1.85;1.65;;;37.40;36.80;;;;;;5071765;28;20028;-83
2021/08/05 11:28:52;;;;;;;9.02;1.73;;;37.20;36.80;;;;;;5071062;28;20476;-82
2021/08/05 11:31:30;;;;;;;1.02;0.93;;;37.20;37.10;;;;;;5053075;28;20036;-83
2021/08/05 11:34:07;;;;;;;4.28;2.47;;;37.20;37.00;;;;;;5071848;28;20115;-81
2021/08/05 11:36:36;;;;;;;1.17;0.77;;;37.00;36.70;;;;;;5071549;28;20025;-78
2021/08/05 11:39:23;;;;;;;1.40;0.85;;;37.10;36.90;;;;;;5071326;28;20028;-83
2021/08/05 11:41:52;;;;;;;3.08;2.42;;;37.40;36.90;;;;;;5071416;28;20039;-82
2021/08/05 11:44:31;;;;;;;3.70;1.65;;;37.40;36.10;;;;;;5071294;28;20104;-80
2021/08/05 11:47:09;;;;;;;19.40;2.53;;;37.30;36.30;;;;;;5053012;28;20100;-82
2021/08/05 11:49:47;;;;;;;4.30;2.50;;;37.30;36.50;;;;;;5070961;28;20072;-81
2021/08/05 11:52:36;;;;;;;0.25;0.25;;;37.30;36.00;;;;;;5073253;28;20033;-82
2021/08/05 11:55:15;;;;;;;6.80;2.83;;;37.40;36.90;;;;;;5074894;28;20031;-81
2021/08/05 11:57:46;;;;;;;2.05;0.63;;;37.50;36.70;;;;;;5075236;28;20063;-83
2021/08/05 12:00:23;;;;;;;1.63;1.38;;;37.70;36.50;;;;;;5057122;28;20369;-84
2021/08/05 12:02:52;;;;;;;2.72;1.15;;;37.50;36.30;;;;;;5075195;28;20448;-82
2021/08/05 12:05:20;;;;;;;2.30;1.35;;;37.80;36.40;;;;;;5075019;28;20116;-84
2021/08/05 12:07:48;;;;;;;1.00;0.90;;;38.10;36.00;;;;;;5074934;28;20021;-83
2021/08/05 12:10:31;;;;;;;0.80;0.77;;;38.30;36.20;;;;;;5074787;28;20024;-84
2021/08/05 12:13:03;;;;;;;2.95;2.65;;;38.40;35.50;;;;;;5074415;28;20392;-82
2021/08/05 12:15:39;;;;;;;3.42;1.95;;;38.40;34.90;;;;;;5074834;28;20375;-82
2021/08/05 12:18:21;;;;;;;2.70;2.08;;;38.40;34.70;;;;;;5075013;28;20046;-83
2021/08/05 12:21:14;;;;;;;2.75;1.60;;;38.60;34.40;;;;;;5075134;28;20017;-82
2021/08/05 12:23:43;;;;;;;4.80;2.75;;;38.50;34.60;;;;;;5074416;28;20449;-80
2021/08/05 12:28:41;;;;;;;0.77;0.57;;;38.00;35.30;;;;;;5074161;28;20044;-81
2021/08/05 12:31:09;;;;;;;2.15;1.88;;;37.80;34.90;;;;;;5074423;28;20039;-79
2021/08/05 12:33:40;;;;;;;1.73;1.33;;;37.50;34.90;;;;;;5074611;28;20107;-81
2021/08/05 12:36:12;;;;;;;2.22;1.83;;;37.50;35.20;;;;;;5056529;28;20025;-81
2021/08/05 12:39:07;;;;;;;0.88;0.40;;;37.50;35.20;;;;;;5074322;28;20028;-82
2021/08/05 12:41:51;;;;;;;1.58;1.48;;;37.60;35.10;;;;;;5074153;28;20025;-81
2021/08/05 12:44:20;;;;;;;2.03;1.83;;;37.70;35.30;;;;;;5073929;28;20074;-81
2021/08/05 12:46:51;;;;;;;1.15;0.82;;;37.70;35.30;;;;;;5073941;28;20016;-82
2021/08/05 12:49:18;;;;;;;3.13;1.75;;;38.20;35.80;;;;;;5073965;28;20063;-81
2021/08/05 12:51:45;;;;;;;1.15;1.08;;;38.40;35.80;;;;;;5074080;28;20036;-83
2021/08/05 12:54:20;;;;;;;0.47;0.47;;;38.50;35.00;;;;;;5074079;28;20380;-80
2021/08/05 12:56:51;;;;;;;6.80;2.97;;;38.30;34.70;;;;;;5074182;28;20039;-79
2021/08/05 12:59:18;;;;;;;1.25;1.00;;;38.10;34.90;;;;;;5074045;28;20111;-80